Friday, July 20, 2018, 12:43 PM EDT
Back to Local

KZZV, Zanesville Municipal Airport

Location: Zanesville, OH, United States Lat: 39.95
Local Time: 12:43 PM EDT (16:43 GMT) Lon: -81.9
Time Zone: US/Eastern Elev: 898 ft

Show me the last for .
Show Decoded

2018-07-20 11:53 METAR KZZV 201553Z AUTO 21006KT 3SM RA BR FEW060 FEW070 OVC095 21/18 A2999 RMK
                 AO2 PK WND 21026/1455 RAB1457 SLP150 P0013 T02060183 =
2018-07-20 10:53 METAR KZZV 201453Z AUTO 21018G28KT 10SM BKN035 OVC047 24/17 A3000 RMK AO2 PK WND
                 21028/1451 LTG DSNT S AND SW PRESRR SLP151 60000 T02440172 53007 =
2018-07-20 09:53 METAR KZZV 201353Z AUTO 18012KT 10SM FEW065 26/17 A2997 RMK AO2 LTG DSNT SW
                 SLP141 T02560172 =
2018-07-20 08:53 METAR KZZV 201253Z AUTO 17012KT 10SM CLR 24/17 A2997 RMK AO2 RAB02E12 SLP141
                 P0000 T02390167 =
2018-07-20 07:53 METAR KZZV 201153Z AUTO 16011KT 10SM FEW060 SCT085 23/16 A2997 RMK AO2 SLP142
                 T02280161 10228 20206 53004 =
2018-07-20 06:53 METAR KZZV 201053Z AUTO 15008KT 10SM CLR 21/16 A2997 RMK AO2 SLP140 T02110156 =
2018-07-20 05:53 METAR KZZV 200953Z AUTO 16008KT 10SM SCT070 21/16 A2996 RMK AO2 SLP138 T02110161
                 =
2018-07-20 04:53 METAR KZZV 200853Z AUTO 15007KT 10SM BKN070 21/16 A2996 RMK AO2 SLP139 T02110161
                 56003 =
2018-07-20 03:53 METAR KZZV 200753Z AUTO 16009KT 10SM CLR 22/17 A2996 RMK AO2 SLP138 T02170167 =
2018-07-20 02:53 METAR KZZV 200653Z AUTO 16009KT 10SM SCT070 22/16 A2996 RMK AO2 SLP137 T02170161
                 =
2018-07-20 01:53 METAR KZZV 200553Z AUTO 17003KT 10SM BKN065 21/16 A2997 RMK AO2 SLP142 T02060156
                 10267 20200 58007 =
2018-07-20 00:53 METAR KZZV 200453Z AUTO 13005KT 10SM SCT065 21/16 A2999 RMK AO2 SLP148 T02110156
                 402890144 =
2018-07-19 23:53 METAR KZZV 200353Z AUTO 00000KT 10SM BKN065 21/17 A3000 RMK AO2 SLP150 T02060167
                 =
2018-07-19 22:53 METAR KZZV 200253Z AUTO 00000KT 10SM CLR 21/16 A3000 RMK AO2 SLP151 T02110161
                 53002 =
2018-07-19 21:53 METAR KZZV 200153Z AUTO 13003KT 10SM CLR 22/16 A2999 RMK AO2 SLP150 T02220161 =
2018-07-19 20:53 METAR KZZV 200053Z AUTO 00000KT 10SM CLR 26/15 A2999 RMK AO2 SLP148 T02560150 =
2018-07-19 19:53 METAR KZZV 192353Z AUTO 00000KT 10SM CLR 27/14 A2999 RMK AO2 SLP149 T02670144
                 10289 20267 58012 =
2018-07-19 18:53 METAR KZZV 192253Z AUTO 12004KT 10SM CLR 28/13 A3000 RMK AO2 SLP152 T02780133 =
2018-07-19 17:53 METAR KZZV 192153Z AUTO 16008KT 10SM CLR 29/13 A3001 RMK AO2 SLP157 T02890133 =
2018-07-19 16:53 METAR KZZV 192053Z AUTO VRB04KT 10SM CLR 28/14 A3002 RMK AO2 SLP161 T02780144
                 56014 =
2018-07-19 15:53 METAR KZZV 191953Z AUTO 11007KT 10SM CLR 28/13 A3003 RMK AO2 SLP163 T02780128 =
2018-07-19 14:53 METAR KZZV 191853Z AUTO 10SM CLR 28/13 A3005 RMK AO2 SLP168 T02780128 =
2018-07-19 13:53 METAR KZZV 191753Z AUTO 12007KT 10SM CLR 27/13 A3007 RMK AO2 SLP175 T02670128
                 10272 20178 58013 =
2018-07-19 12:53 METAR KZZV 191653Z AUTO VRB03KT 10SM CLR 26/12 A3008 RMK AO2 SLP179 T02560122 =

Support USWX by starting your Amazon purchase here.